Time;durP1;ratioP1;P1;durP2;ratioP2;P2;SDS_P1;SDS_P2;PMS_P1;PMS_P2;Temp;Humidity;BMP_temperature;BMP_pressure;BME280_temperature;BME280_humidity;BME280_pressure;Samples;Min_cycle;Max_cycle;Signal;HPM_P1;HPM_P2
2021/03/13 00:04:25;;;;;;;18.73;3.70;;;7.60;99.90;;;;;;5028391;28;20041;-63
2021/03/13 00:06:51;;;;;;;22.13;4.47;;;7.60;99.90;;;;;;5040182;28;20040;-62
2021/03/13 00:09:16;;;;;;;16.65;2.60;;;7.60;99.90;;;;;;5047297;28;20477;-64
2021/03/13 00:11:42;;;;;;;30.70;4.03;;;7.60;99.90;;;;;;5039945;28;20060;-63
2021/03/13 00:14:07;;;;;;;14.18;3.10;;;7.60;99.90;;;;;;5047710;28;20022;-64
2021/03/13 00:16:33;;;;;;;11.48;3.00;;;7.60;99.90;;;;;;5054166;28;20080;-62
2021/03/13 00:18:58;;;;;;;15.90;2.80;;;7.60;99.90;;;;;;5043560;28;20028;-61
2021/03/13 00:21:24;;;;;;;15.43;2.95;;;7.60;99.90;;;;;;5039463;28;20131;-63
2021/03/13 00:23:49;;;;;;;11.25;2.45;;;7.60;99.90;;;;;;5038400;28;20104;-65
2021/03/13 00:26:15;;;;;;;10.15;2.15;;;7.60;99.90;;;;;;5044576;28;20387;-61
2021/03/13 00:28:40;;;;;;;17.40;2.60;;;7.60;99.90;;;;;;5052429;28;20287;-64
2021/03/13 00:31:06;;;;;;;13.38;2.72;;;7.60;99.90;;;;;;5045535;28;20813;-62
2021/03/13 00:33:36;;;;;;;16.33;2.72;;;7.60;99.90;;;;;;5044113;28;20133;-61
2021/03/13 00:36:02;;;;;;;14.23;3.25;;;7.60;99.90;;;;;;5046213;28;20048;-62
2021/03/13 00:38:28;;;;;;;14.77;2.60;;;7.60;99.90;;;;;;5039313;28;20356;-62
2021/03/13 00:40:54;;;;;;;14.98;3.13;;;7.60;99.90;;;;;;5036444;28;20075;-62
2021/03/13 00:43:20;;;;;;;18.92;3.42;;;7.50;99.90;;;;;;5049705;28;20025;-61
2021/03/13 00:45:47;;;;;;;14.95;3.38;;;7.50;99.90;;;;;;5048589;28;20064;-62
2021/03/13 00:48:12;;;;;;;9.02;3.00;;;7.50;99.90;;;;;;5042553;28;20202;-62
2021/03/13 00:50:40;;;;;;;15.55;3.45;;;7.40;99.90;;;;;;5039175;28;20103;-61
2021/03/13 00:53:06;;;;;;;27.55;3.88;;;7.40;99.90;;;;;;5041171;28;20471;-62
2021/03/13 08:03:45;;;;;;;18.90;2.03;;;6.60;99.90;;;;;;5069986;28;20188;-63
2021/03/13 08:06:15;;;;;;;20.35;3.13;;;6.80;99.90;;;;;;5021213;28;20055;-61
2021/03/13 08:08:46;;;;;;;14.98;2.95;;;6.90;99.90;;;;;;5033648;28;20395;-65
2021/03/13 08:11:21;;;;;;;25.38;3.20;;;7.10;99.90;;;;;;5062769;28;20024;-63
2021/03/13 08:13:59;;;;;;;24.30;2.90;;;7.30;99.90;;;;;;5062322;28;20036;-63
2021/03/13 08:16:31;;;;;;;18.65;2.78;;;7.50;99.90;;;;;;5051544;28;20032;-64
2021/03/13 08:18:58;;;;;;;18.52;2.63;;;7.60;99.90;;;;;;5050774;28;20123;-62
2021/03/13 08:21:23;;;;;;;15.05;2.63;;;7.50;99.90;;;;;;5047389;28;20024;-63
2021/03/13 08:23:50;;;;;;;23.90;3.42;;;7.60;99.90;;;;;;5050933;28;20035;-65
2021/03/13 08:26:17;;;;;;;21.52;3.03;;;7.70;99.90;;;;;;5052404;28;20073;-63
2021/03/13 08:28:49;;;;;;;27.13;3.83;;;7.70;99.90;;;;;;5051076;28;20028;-64
2021/03/13 08:31:33;;;;;;;19.42;4.13;;;7.70;99.90;;;;;;5051774;28;20055;-62
2021/03/13 08:34:04;;;;;;;17.40;2.90;;;7.90;99.90;;;;;;5047306;28;20044;-62
2021/03/13 08:36:32;;;;;;;13.37;2.20;;;8.20;99.90;;;;;;5065207;28;20016;-62
2021/03/13 08:39:11;;;;;;;15.75;3.63;;;8.50;99.90;;;;;;5064883;28;20137;-62
2021/03/13 08:41:45;;;;;;;34.25;4.38;;;8.60;99.90;;;;;;5065578;28;20049;-64
2021/03/13 08:44:26;;;;;;;21.77;4.10;;;8.40;99.90;;;;;;5061404;28;20082;-64
2021/03/13 08:47:03;;;;;;;30.55;3.80;;;8.30;99.90;;;;;;5066357;28;20025;-63
2021/03/13 08:49:29;;;;;;;31.27;3.63;;;8.20;99.90;;;;;;5064288;28;20032;-68
2021/03/13 08:52:09;;;;;;;30.52;4.07;;;8.20;99.90;;;;;;5065513;28;20024;-62
2021/03/13 08:54:41;;;;;;;35.20;5.82;;;8.20;99.90;;;;;;5060055;28;20013;-64
2021/03/13 08:57:44;;;;;;;32.85;5.15;;;8.20;99.90;;;;;;5053237;28;20540;-61
2021/03/13 09:00:10;;;;;;;40.88;4.97;;;8.20;99.90;;;;;;5039183;28;20025;-63
2021/03/13 09:02:40;;;;;;;34.70;4.22;;;8.30;99.90;;;;;;5065291;28;20150;-64
2021/03/13 09:05:21;;;;;;;46.17;5.80;;;8.40;99.90;;;;;;5066292;28;20036;-63
2021/03/13 09:07:52;;;;;;;36.53;5.57;;;8.50;99.90;;;;;;5061923;28;20386;-61
2021/03/13 09:10:18;;;;;;;40.70;5.47;;;8.70;99.90;;;;;;5063752;28;20037;-64
2021/03/13 09:12:45;;;;;;;36.20;4.93;;;8.60;99.90;;;;;;5059378;28;20104;-62
2021/03/13 09:15:12;;;;;;;40.80;4.93;;;8.50;99.90;;;;;;5050941;28;20013;-62
2021/03/13 09:17:38;;;;;;;27.65;5.78;;;8.40;99.90;;;;;;5054329;28;20044;-64
2021/03/13 09:20:14;;;;;;;42.80;6.00;;;8.50;99.90;;;;;;5070496;28;20106;-63
2021/03/13 09:22:42;;;;;;;34.88;4.97;;;8.70;99.90;;;;;;5056291;28;20105;-62
2021/03/13 09:25:17;;;;;;;37.97;4.35;;;8.80;99.90;;;;;;5064126;28;20044;-61
2021/03/13 09:27:43;;;;;;;36.83;4.43;;;8.70;99.90;;;;;;5062619;28;20035;-64
2021/03/13 09:30:10;;;;;;;36.08;6.60;;;8.90;99.90;;;;;;5058558;28;20035;-63
2021/03/13 09:32:47;;;;;;;32.72;5.35;;;9.00;99.90;;;;;;5067359;28;20567;-62
2021/03/13 09:35:14;;;;;;;30.60;5.75;;;8.90;99.90;;;;;;5067817;28;20165;-64
2021/03/13 09:37:41;;;;;;;33.72;4.50;;;8.80;99.90;;;;;;5059298;28;20016;-66
2021/03/13 09:40:11;;;;;;;28.40;5.28;;;8.70;99.90;;;;;;5067140;28;20497;-63
2021/03/13 09:42:41;;;;;;;30.92;4.55;;;8.70;99.90;;;;;;5060633;28;20133;-65
2021/03/13 09:45:19;;;;;;;35.67;4.68;;;8.70;99.90;;;;;;5045469;28;20025;-63
2021/03/13 09:48:00;;;;;;;37.55;5.88;;;8.70;99.90;;;;;;5058850;28;20131;-62
2021/03/13 09:50:28;;;;;;;46.25;6.10;;;8.60;99.90;;;;;;5061046;28;20286;-62
2021/03/13 09:52:55;;;;;;;35.65;6.78;;;8.90;99.90;;;;;;5061153;28;20033;-61
2021/03/13 09:55:26;;;;;;;38.72;4.28;;;9.20;99.90;;;;;;5046859;28;20025;-63
2021/03/13 09:57:56;;;;;;;29.48;5.25;;;9.20;99.90;;;;;;5064644;28;20021;-65
2021/03/13 10:00:24;;;;;;;33.17;5.13;;;9.20;99.90;;;;;;5055704;28;20055;-63
2021/03/13 10:02:51;;;;;;;37.28;4.72;;;9.20;99.90;;;;;;5060604;28;20025;-68
2021/03/13 10:05:19;;;;;;;31.17;4.88;;;9.00;99.90;;;;;;5055877;28;20033;-62
2021/03/13 10:07:46;;;;;;;26.98;5.05;;;9.00;99.90;;;;;;5062820;28;20127;-62
2021/03/13 10:10:17;;;;;;;27.50;4.65;;;9.00;99.90;;;;;;5060019;28;20158;-62
2021/03/13 10:12:46;;;;;;;30.02;4.25;;;9.00;99.90;;;;;;5057500;28;20021;-64
2021/03/13 10:15:34;;;;;;;27.15;5.00;;;9.00;99.90;;;;;;5057514;28;20106;-64
2021/03/13 10:18:05;;;;;;;35.92;5.15;;;9.00;99.90;;;;;;5062906;28;20036;-62
2021/03/13 10:20:34;;;;;;;40.63;5.75;;;9.10;99.90;;;;;;5061859;28;20029;-68
2021/03/13 10:23:09;;;;;;;35.20;5.05;;;9.20;99.90;;;;;;5071433;28;20048;-65
2021/03/13 10:25:36;;;;;;;37.85;4.82;;;9.20;99.90;;;;;;5065528;28;20033;-64
2021/03/13 10:28:10;;;;;;;42.08;4.65;;;9.10;99.90;;;;;;5055318;28;20101;-64
2021/03/13 10:30:38;;;;;;;33.78;4.13;;;9.00;99.90;;;;;;5059875;28;20439;-62
2021/03/13 10:33:04;;;;;;;34.60;4.97;;;8.90;99.90;;;;;;5061229;28;20040;-64
2021/03/13 10:35:33;;;;;;;26.90;3.92;;;8.80;99.90;;;;;;5061147;28;20108;-61
2021/03/13 10:38:01;;;;;;;20.92;3.47;;;8.90;99.90;;;;;;5060163;28;20090;-62
2021/03/13 10:40:45;;;;;;;33.17;4.18;;;9.20;99.90;;;;;;5060638;28;20138;-61
2021/03/13 10:43:32;;;;;;;29.80;4.30;;;9.60;99.90;;;;;;5061971;28;20021;-63
2021/03/13 10:45:57;;;;;;;24.48;3.47;;;9.80;99.90;;;;;;5063007;28;20016;-64
2021/03/13 10:48:27;;;;;;;32.38;4.95;;;9.80;99.90;;;;;;5058627;28;20077;-62
2021/03/13 10:50:56;;;;;;;39.42;5.55;;;9.50;99.90;;;;;;5042871;28;20032;-64
2021/03/13 10:53:39;;;;;;;34.88;4.93;;;9.40;99.90;;;;;;5063364;28;20028;-63
2021/03/13 10:56:10;;;;;;;18.50;3.42;;;9.40;99.90;;;;;;5060519;28;20025;-62
2021/03/13 10:58:49;;;;;;;25.95;4.40;;;9.30;99.90;;;;;;5060113;28;20029;-62
2021/03/13 11:01:16;;;;;;;29.05;4.35;;;9.20;99.90;;;;;;5062589;28;20378;-61
2021/03/13 11:03:44;;;;;;;30.45;4.75;;;9.30;99.90;;;;;;5057557;28;20023;-64
2021/03/13 11:06:11;;;;;;;28.42;3.67;;;9.80;99.90;;;;;;5045695;28;20031;-63
2021/03/13 11:08:38;;;;;;;25.77;4.25;;;10.00;99.90;;;;;;5043060;28;20128;-64
2021/03/13 11:11:03;;;;;;;22.77;3.53;;;10.00;99.90;;;;;;5050832;28;20506;-64
2021/03/13 11:13:29;;;;;;;27.83;3.92;;;9.80;99.90;;;;;;5031189;28;20057;-62
2021/03/13 11:15:55;;;;;;;33.60;3.15;;;9.70;99.90;;;;;;5054571;28;20028;-66
2021/03/13 11:18:21;;;;;;;21.20;3.45;;;9.70;99.90;;;;;;5052068;28;20070;-63
2021/03/13 11:20:47;;;;;;;31.30;5.25;;;9.70;99.90;;;;;;5049107;28;20118;-62
2021/03/13 11:23:14;;;;;;;32.30;4.07;;;9.50;99.90;;;;;;5049975;28;20091;-62
2021/03/13 11:25:40;;;;;;;29.83;4.75;;;9.40;99.90;;;;;;5054525;28;20032;-62
2021/03/13 11:28:06;;;;;;;30.50;5.05;;;9.30;99.90;;;;;;5045158;28;20033;-63
2021/03/13 11:30:31;;;;;;;21.55;2.50;;;9.10;99.90;;;;;;5049885;28;20086;-62
2021/03/13 11:32:57;;;;;;;17.75;2.65;;;8.80;99.90;;;;;;5050180;28;20032;-63
2021/03/13 11:35:23;;;;;;;15.98;2.67;;;8.90;99.90;;;;;;5051695;28;20219;-66
2021/03/13 11:37:50;;;;;;;27.35;3.85;;;9.20;99.90;;;;;;5052184;28;20655;-63
2021/03/13 11:40:18;;;;;;;18.65;3.05;;;9.70;99.90;;;;;;5059924;28;20044;-63
2021/03/13 11:42:44;;;;;;;19.15;2.67;;;9.90;99.90;;;;;;5064961;28;20097;-64
2021/03/13 11:45:12;;;;;;;13.35;2.28;;;9.70;99.90;;;;;;5061731;28;20627;-64
2021/03/13 11:47:39;;;;;;;13.20;2.55;;;9.60;99.90;;;;;;5066855;28;20024;-64
2021/03/13 11:50:08;;;;;;;10.60;2.47;;;9.80;99.90;;;;;;5066698;28;20028;-62
2021/03/13 11:52:35;;;;;;;14.32;2.28;;;10.00;99.90;;;;;;5063844;28;20064;-62
2021/03/13 11:55:00;;;;;;;16.80;1.98;;;10.00;99.90;;;;;;5050457;28;20486;-63
2021/03/13 11:57:26;;;;;;;17.65;2.63;;;9.80;99.90;;;;;;5050528;28;20040;-64
2021/03/13 11:59:52;;;;;;;11.35;2.38;;;9.60;99.90;;;;;;5066685;28;20600;-64
2021/03/13 12:02:17;;;;;;;13.07;2.00;;;9.50;99.90;;;;;;5063977;28;20142;-62
2021/03/13 12:04:44;;;;;;;11.48;1.85;;;9.50;99.90;;;;;;5061827;28;20169;-64
2021/03/13 12:07:11;;;;;;;14.10;2.10;;;9.50;99.90;;;;;;5056287;28;20028;-64
2021/03/13 12:09:37;;;;;;;18.95;3.78;;;9.50;99.90;;;;;;5057696;28;20384;-65
2021/03/13 12:12:06;;;;;;;10.48;1.67;;;9.50;99.90;;;;;;5064466;28;20046;-62
2021/03/13 12:14:35;;;;;;;5.45;1.65;;;9.40;99.90;;;;;;5059598;28;20107;-64
2021/03/13 12:17:01;;;;;;;11.18;1.80;;;9.40;99.90;;;;;;5066732;28;20081;-62
2021/03/13 12:19:27;;;;;;;14.88;2.72;;;9.50;99.90;;;;;;5064850;28;20420;-63
2021/03/13 12:21:53;;;;;;;8.90;1.63;;;9.40;99.90;;;;;;5065513;28;20670;-62
2021/03/13 12:24:19;;;;;;;6.70;1.70;;;9.30;99.90;;;;;;5065308;28;20116;-63
2021/03/13 12:26:46;;;;;;;14.77;1.95;;;9.30;99.90;;;;;;5066225;28;20031;-64
2021/03/13 12:29:11;;;;;;;12.07;1.80;;;9.30;99.90;;;;;;5065748;28;20056;-64
2021/03/13 12:31:37;;;;;;;11.52;1.73;;;9.40;99.90;;;;;;5066723;28;20619;-65
2021/03/13 12:34:04;;;;;;;13.90;1.90;;;9.20;99.90;;;;;;5066701;28;20072;-63
2021/03/13 12:36:30;;;;;;;9.20;1.63;;;8.80;99.90;;;;;;5064295;28;20021;-63
2021/03/13 12:38:56;;;;;;;11.35;1.80;;;8.60;99.90;;;;;;5058974;28;20020;-64
2021/03/13 12:41:22;;;;;;;12.45;1.58;;;8.60;99.90;;;;;;5046962;28;20118;-64
2021/03/13 12:43:48;;;;;;;14.52;1.70;;;8.70;99.90;;;;;;5056132;28;20029;-63
2021/03/13 12:46:16;;;;;;;13.43;2.40;;;8.70;99.90;;;;;;5064349;28;20402;-62
2021/03/13 12:48:47;;;;;;;16.13;2.90;;;8.80;99.90;;;;;;5068654;28;20074;-66
2021/03/13 12:51:13;;;;;;;14.32;2.28;;;8.70;99.90;;;;;;5068098;28;20501;-65
2021/03/13 12:53:40;;;;;;;12.90;2.03;;;8.50;99.90;;;;;;5047231;28;20020;-65
2021/03/13 12:56:05;;;;;;;10.20;1.17;;;8.30;99.90;;;;;;5062039;28;20083;-64
2021/03/13 12:58:31;;;;;;;7.60;1.33;;;8.00;99.90;;;;;;5058434;28;20458;-64
2021/03/13 13:00:57;;;;;;;13.80;2.00;;;7.70;99.90;;;;;;5058224;28;20075;-62
2021/03/13 13:03:23;;;;;;;13.05;2.10;;;7.70;99.90;;;;;;5062285;28;20036;-65
2021/03/13 13:05:48;;;;;;;12.90;1.65;;;7.80;99.90;;;;;;5047811;28;20044;-64
2021/03/13 13:08:14;;;;;;;7.75;1.35;;;7.90;99.90;;;;;;5060350;28;20032;-65
2021/03/13 13:10:40;;;;;;;22.00;2.35;;;8.00;99.90;;;;;;5057510;28;20025;-63
2021/03/13 13:13:12;;;;;;;19.15;3.05;;;8.30;99.90;;;;;;5067846;28;20033;-63
2021/03/13 13:15:38;;;;;;;10.95;2.40;;;8.60;99.90;;;;;;5067756;28;20416;-64
2021/03/13 13:18:04;;;;;;;14.30;2.50;;;9.20;99.90;;;;;;5063891;28;20024;-64
2021/03/13 13:20:29;;;;;;;20.65;2.50;;;9.10;99.90;;;;;;5066476;28;20021;-64
2021/03/13 13:22:55;;;;;;;12.73;2.17;;;9.10;99.90;;;;;;5069979;28;20048;-61
2021/03/13 13:25:20;;;;;;;15.40;2.10;;;9.10;99.90;;;;;;5068548;28;20024;-63
2021/03/13 13:27:46;;;;;;;13.07;2.38;;;9.10;99.90;;;;;;5066569;28;20024;-64
2021/03/13 13:30:14;;;;;;;18.25;2.05;;;9.10;99.90;;;;;;5063591;28;20306;-64
2021/03/13 13:32:40;;;;;;;13.98;1.70;;;9.10;99.90;;;;;;5064920;28;20029;-65
2021/03/13 13:35:06;;;;;;;6.35;1.75;;;9.00;99.90;;;;;;5068211;28;20324;-62
2021/03/13 13:37:32;;;;;;;12.90;2.17;;;9.10;99.90;;;;;;5060209;28;20075;-63
2021/03/13 13:39:58;;;;;;;13.23;2.25;;;9.20;99.90;;;;;;5060770;28;20587;-63
2021/03/13 13:42:24;;;;;;;9.70;1.83;;;9.30;99.90;;;;;;5060957;28;20179;-63
2021/03/13 13:44:50;;;;;;;14.38;2.00;;;9.30;99.90;;;;;;5061043;28;20394;-64
2021/03/13 13:47:16;;;;;;;12.85;1.65;;;9.80;99.90;;;;;;5056475;28;20037;-62
2021/03/13 13:49:42;;;;;;;11.43;1.75;;;10.20;99.90;;;;;;5064571;28;20040;-61
2021/03/13 13:52:08;;;;;;;8.40;1.58;;;10.00;99.90;;;;;;5057737;28;20494;-66
2021/03/13 13:54:34;;;;;;;14.02;2.30;;;10.30;99.90;;;;;;5055095;28;20207;-66
2021/03/13 13:56:59;;;;;;;7.97;2.15;;;10.30;99.90;;;;;;5049521;28;20055;-61
2021/03/13 13:59:25;;;;;;;9.57;2.30;;;10.00;99.90;;;;;;5054677;28;20029;-63
2021/03/13 14:01:50;;;;;;;9.05;2.05;;;10.00;99.90;;;;;;5059472;28;20056;-65
2021/03/13 14:04:16;;;;;;;5.28;1.30;;;9.90;99.90;;;;;;5056679;28;20016;-65
2021/03/13 14:06:41;;;;;;;11.27;2.28;;;10.10;99.90;;;;;;5063297;28;20029;-66
2021/03/13 14:09:07;;;;;;;8.50;1.45;;;9.90;99.90;;;;;;5066569;28;20037;-63
2021/03/13 14:11:34;;;;;;;14.40;1.70;;;10.00;99.90;;;;;;5067268;28;20095;-65
2021/03/13 14:14:00;;;;;;;6.05;1.48;;;10.10;99.90;;;;;;5067454;28;20024;-64
2021/03/13 14:16:25;;;;;;;16.90;1.98;;;10.30;99.90;;;;;;5059269;28;20070;-64
2021/03/13 14:18:51;;;;;;;9.82;2.53;;;10.30;99.90;;;;;;5061353;28;20112;-62
2021/03/13 14:21:18;;;;;;;11.85;1.75;;;10.20;99.90;;;;;;5057308;28;20031;-61
2021/03/13 14:23:43;;;;;;;8.38;1.23;;;10.20;99.90;;;;;;5062611;28;20044;-63
2021/03/13 14:26:09;;;;;;;12.57;2.60;;;10.10;99.90;;;;;;5053576;28;20070;-65
2021/03/13 14:28:35;;;;;;;10.68;1.70;;;9.90;99.90;;;;;;5071516;28;20020;-62
2021/03/13 14:31:01;;;;;;;14.30;2.05;;;9.80;99.90;;;;;;5069618;28;20398;-63
2021/03/13 14:33:26;;;;;;;10.32;1.85;;;9.70;99.90;;;;;;5070989;28;20016;-64
2021/03/13 14:35:56;;;;;;;6.10;1.55;;;9.70;99.90;;;;;;5070755;28;20500;-65
2021/03/13 14:38:25;;;;;;;12.45;1.92;;;9.60;99.90;;;;;;5069462;28;20023;-64
2021/03/13 14:40:51;;;;;;;11.63;1.98;;;9.60;99.90;;;;;;5069922;28;20029;-62
2021/03/13 14:43:17;;;;;;;5.88;1.65;;;9.50;99.90;;;;;;5066907;28;20029;-66
2021/03/13 14:45:43;;;;;;;5.05;1.30;;;9.50;99.90;;;;;;5069318;28;20030;-62
2021/03/13 14:48:10;;;;;;;7.97;1.10;;;9.50;99.90;;;;;;5068534;28;20634;-63
2021/03/13 14:50:36;;;;;;;7.13;1.58;;;9.50;99.90;;;;;;5070971;28;20029;-63
2021/03/13 14:53:01;;;;;;;16.23;2.17;;;9.50;99.90;;;;;;5069939;28;20539;-65
2021/03/13 14:55:27;;;;;;;5.88;1.48;;;9.60;99.90;;;;;;5069911;28;20024;-63
2021/03/13 14:57:53;;;;;;;11.05;1.70;;;9.60;99.90;;;;;;5068970;28;20123;-64
2021/03/13 15:00:22;;;;;;;9.55;1.35;;;9.50;99.90;;;;;;5068499;28;20028;-63
2021/03/13 15:02:48;;;;;;;15.32;1.20;;;9.50;99.90;;;;;;5052123;28;20024;-62
2021/03/13 15:05:14;;;;;;;11.57;1.60;;;9.50;99.90;;;;;;5051724;28;20020;-63
2021/03/13 15:07:40;;;;;;;11.80;1.95;;;9.60;99.90;;;;;;5070521;28;20101;-63
2021/03/13 15:10:08;;;;;;;6.30;1.33;;;9.70;99.90;;;;;;5070384;28;20100;-63
2021/03/13 15:12:33;;;;;;;10.75;1.83;;;9.80;99.90;;;;;;5067619;28;20033;-65
2021/03/13 15:15:00;;;;;;;17.58;1.60;;;9.80;99.90;;;;;;5068787;28;20020;-64
2021/03/13 15:17:25;;;;;;;8.95;1.40;;;9.70;99.90;;;;;;5066980;28;20473;-63
2021/03/13 15:19:51;;;;;;;8.95;1.30;;;9.70;99.90;;;;;;5052434;28;20087;-62
2021/03/13 15:22:17;;;;;;;10.77;1.73;;;9.70;99.90;;;;;;5052492;28;20509;-62
2021/03/13 15:24:43;;;;;;;11.50;1.65;;;9.70;99.90;;;;;;5067131;28;20078;-64
2021/03/13 15:27:10;;;;;;;14.23;1.77;;;9.70;99.90;;;;;;5069454;28;20024;-64
2021/03/13 15:29:37;;;;;;;11.38;1.33;;;9.70;99.90;;;;;;5070074;28;20037;-63
2021/03/13 15:32:03;;;;;;;7.93;1.33;;;9.70;99.90;;;;;;5071790;28;20386;-64
2021/03/13 15:34:30;;;;;;;7.13;1.05;;;9.60;99.90;;;;;;5066817;28;20386;-65
2021/03/13 15:36:55;;;;;;;7.90;1.48;;;9.70;99.90;;;;;;5070326;28;20522;-63
2021/03/13 15:39:21;;;;;;;8.43;1.20;;;9.70;99.90;;;;;;5065000;28;20152;-64
2021/03/13 15:41:47;;;;;;;6.07;1.17;;;9.60;99.90;;;;;;5070255;28;20036;-63
2021/03/13 15:44:12;;;;;;;7.88;1.45;;;9.70;99.90;;;;;;5071285;28;20596;-64
2021/03/13 15:46:38;;;;;;;4.82;1.23;;;9.70;99.90;;;;;;5063273;28;20095;-64
2021/03/13 15:49:07;;;;;;;2.63;0.95;;;9.70;99.90;;;;;;5066362;28;20016;-65
2021/03/13 15:51:33;;;;;;;6.18;1.20;;;9.50;99.90;;;;;;5050190;28;20033;-62
2021/03/13 15:53:58;;;;;;;8.40;1.48;;;9.60;99.90;;;;;;5048350;28;20028;-62
2021/03/13 15:56:24;;;;;;;5.70;1.50;;;9.60;99.90;;;;;;5050702;28;20024;-63
2021/03/13 15:58:50;;;;;;;2.58;0.63;;;9.50;99.90;;;;;;5060143;28;20033;-64
2021/03/13 16:01:15;;;;;;;15.43;1.95;;;9.50;99.90;;;;;;5063031;28;20115;-66
2021/03/13 16:03:41;;;;;;;9.68;1.20;;;9.50;99.90;;;;;;5061897;28;20406;-64
2021/03/13 16:06:07;;;;;;;7.93;1.23;;;9.40;99.90;;;;;;5065183;28;20040;-62
2021/03/13 16:08:33;;;;;;;9.90;1.63;;;9.40;99.90;;;;;;5061177;28;20036;-65
2021/03/13 16:10:58;;;;;;;14.00;1.30;;;9.40;99.90;;;;;;5068083;28;20024;-62
2021/03/13 16:13:24;;;;;;;9.38;1.38;;;9.40;99.90;;;;;;5052210;28;20025;-63
2021/03/13 16:15:51;;;;;;;11.85;2.15;;;9.40;99.90;;;;;;5053150;28;20031;-63
2021/03/13 16:18:17;;;;;;;4.18;0.82;;;9.40;99.90;;;;;;5068478;28;20218;-64
2021/03/13 16:20:43;;;;;;;5.32;1.00;;;9.30;99.90;;;;;;5039894;28;20020;-61
2021/03/13 16:23:08;;;;;;;6.05;0.88;;;9.30;99.90;;;;;;5068661;28;20033;-62
2021/03/13 16:25:34;;;;;;;5.28;0.80;;;9.30;99.90;;;;;;5064185;28;20120;-64
2021/03/13 16:28:04;;;;;;;7.70;1.10;;;9.30;99.90;;;;;;5067806;28;20028;-64
2021/03/13 16:30:29;;;;;;;5.05;1.05;;;9.30;99.90;;;;;;5048683;28;20672;-64
2021/03/13 16:32:55;;;;;;;2.00;0.70;;;9.20;99.90;;;;;;5069186;28;20103;-64
2021/03/13 16:35:20;;;;;;;5.95;1.38;;;9.30;99.90;;;;;;5062569;28;20021;-64
2021/03/13 16:37:46;;;;;;;9.30;1.20;;;9.30;99.90;;;;;;5065144;28;20035;-64
2021/03/13 16:40:12;;;;;;;6.43;1.45;;;9.20;99.90;;;;;;5058663;28;20025;-62
2021/03/13 16:42:38;;;;;;;9.68;1.25;;;9.10;99.90;;;;;;5054080;28;20029;-64
2021/03/13 16:45:04;;;;;;;7.38;1.45;;;9.10;99.90;;;;;;5065659;28;20028;-63
2021/03/13 16:47:30;;;;;;;9.52;1.30;;;9.10;99.90;;;;;;5055806;28;20021;-63
2021/03/13 16:49:56;;;;;;;8.40;1.10;;;8.90;99.90;;;;;;5062414;28;20394;-64
2021/03/13 16:52:21;;;;;;;9.13;1.45;;;8.90;99.90;;;;;;5068452;28;20540;-63
2021/03/13 16:54:47;;;;;;;7.25;1.17;;;8.80;99.90;;;;;;5062586;28;20068;-63
2021/03/13 16:57:13;;;;;;;9.93;1.75;;;8.80;99.90;;;;;;5064579;28;20482;-62
2021/03/13 16:59:38;;;;;;;10.30;1.73;;;8.80;99.90;;;;;;5055961;28;20437;-63
2021/03/13 17:02:04;;;;;;;12.18;1.50;;;8.70;99.90;;;;;;5060149;28;20090;-64
2021/03/13 17:04:30;;;;;;;10.10;1.50;;;8.70;99.90;;;;;;5056775;28;20104;-63
2021/03/13 17:06:56;;;;;;;16.73;3.10;;;8.60;99.90;;;;;;5057984;28;20116;-65
2021/03/13 17:09:21;;;;;;;18.83;3.15;;;8.60;99.90;;;;;;5069270;28;20036;-62
2021/03/13 17:11:47;;;;;;;17.67;2.05;;;8.40;99.90;;;;;;5069535;28;20107;-63
2021/03/13 17:14:13;;;;;;;13.55;2.80;;;8.40;99.90;;;;;;5065967;28;20025;-64
2021/03/13 17:16:38;;;;;;;11.80;1.90;;;8.30;99.90;;;;;;5059906;28;20028;-63
2021/03/13 17:19:04;;;;;;;13.70;2.45;;;8.30;99.90;;;;;;5068221;28;20103;-64
2021/03/13 17:21:29;;;;;;;19.98;3.00;;;8.30;99.90;;;;;;5067693;28;20024;-64
2021/03/13 17:23:55;;;;;;;19.55;2.78;;;8.20;99.90;;;;;;5053627;28;20797;-65
2021/03/13 17:26:21;;;;;;;12.40;2.25;;;8.10;99.90;;;;;;5037164;28;20939;-62
2021/03/13 17:28:47;;;;;;;17.58;2.15;;;8.10;99.90;;;;;;5029922;28;20098;-63
2021/03/13 17:31:13;;;;;;;16.17;2.92;;;8.10;99.90;;;;;;5029098;28;20395;-64
2021/03/13 17:33:38;;;;;;;8.02;2.15;;;8.10;99.90;;;;;;5040741;28;20113;-63
2021/03/13 17:36:05;;;;;;;18.48;2.55;;;8.10;99.90;;;;;;5057311;28;20107;-63
2021/03/13 17:38:30;;;;;;;13.15;3.05;;;8.10;99.90;;;;;;5049696;28;20022;-63
2021/03/13 17:40:57;;;;;;;15.20;2.58;;;8.00;99.90;;;;;;5041376;28;20086;-65
2021/03/13 17:43:23;;;;;;;8.45;1.60;;;8.00;99.90;;;;;;5047617;28;20025;-64
2021/03/13 17:45:49;;;;;;;8.20;1.98;;;8.00;99.90;;;;;;5041999;28;20384;-63
2021/03/13 17:48:15;;;;;;;9.63;2.45;;;7.90;99.90;;;;;;5046820;28;20033;-63
2021/03/13 17:50:41;;;;;;;9.38;1.75;;;7.90;99.90;;;;;;5039129;28;20032;-63
2021/03/13 17:53:06;;;;;;;11.73;1.55;;;7.90;99.90;;;;;;5025444;28;20025;-60
2021/03/13 17:55:32;;;;;;;9.65;1.40;;;7.80;99.90;;;;;;5046015;28;20031;-63
2021/03/13 17:57:57;;;;;;;11.95;1.92;;;7.70;99.90;;;;;;5042894;28;20036;-62
2021/03/13 18:00:23;;;;;;;12.45;3.17;;;7.70;99.90;;;;;;5046721;28;20443;-64
2021/03/13 18:02:49;;;;;;;15.38;1.98;;;7.70;99.90;;;;;;5044796;28;20065;-62
2021/03/13 18:05:15;;;;;;;10.75;1.92;;;7.60;99.90;;;;;;5045864;28;20033;-63
2021/03/13 18:07:40;;;;;;;11.80;1.60;;;7.60;99.90;;;;;;5047461;28;20021;-63
2021/03/13 18:10:07;;;;;;;10.23;2.33;;;7.60;99.90;;;;;;5038821;28;20053;-66
2021/03/13 18:12:33;;;;;;;12.15;2.58;;;7.50;99.90;;;;;;5041828;28;20102;-64
2021/03/13 18:14:59;;;;;;;7.65;1.38;;;7.50;99.90;;;;;;5038633;28;20116;-64
2021/03/13 18:17:26;;;;;;;12.07;2.08;;;7.50;99.90;;;;;;5036221;28;20527;-65
2021/03/13 18:19:52;;;;;;;6.55;1.25;;;7.40;99.90;;;;;;5033011;28;20074;-63
2021/03/13 18:22:17;;;;;;;11.73;1.42;;;7.40;99.90;;;;;;5040030;28;20032;-61
2021/03/13 18:24:43;;;;;;;9.68;1.33;;;7.40;99.90;;;;;;5044534;28;20517;-64
2021/03/13 18:27:09;;;;;;;9.27;2.22;;;7.40;99.90;;;;;;5051064;28;20028;-62
2021/03/13 18:29:34;;;;;;;14.52;2.05;;;7.40;99.90;;;;;;5042067;28;20112;-65
2021/03/13 18:32:00;;;;;;;17.92;2.08;;;7.40;99.90;;;;;;5053394;28;20028;-64
2021/03/13 18:34:25;;;;;;;11.57;2.20;;;7.40;99.90;;;;;;5052375;28;20029;-64
2021/03/13 18:36:51;;;;;;;10.50;2.47;;;7.40;99.90;;;;;;5050478;28;20061;-64
2021/03/13 18:39:17;;;;;;;10.15;2.00;;;7.40;99.90;;;;;;5050549;28;20059;-62
2021/03/13 18:41:42;;;;;;;11.95;1.88;;;7.40;99.90;;;;;;5056054;28;20443;-65
2021/03/13 18:44:08;;;;;;;16.52;2.40;;;7.30;99.90;;;;;;5054428;28;20424;-62
2021/03/13 18:46:34;;;;;;;15.55;2.90;;;7.30;99.90;;;;;;5049398;28;20079;-63
2021/03/13 18:48:59;;;;;;;14.32;2.20;;;7.30;99.90;;;;;;5051986;28;20446;-65
2021/03/13 18:51:25;;;;;;;16.08;2.20;;;7.30;99.90;;;;;;5048857;28;20036;-63
2021/03/13 18:53:51;;;;;;;12.30;2.10;;;7.30;99.90;;;;;;5051652;28;20029;-65
2021/03/13 18:56:16;;;;;;;13.38;1.75;;;7.30;99.90;;;;;;5051218;28;20032;-62
2021/03/13 18:58:42;;;;;;;9.00;1.65;;;7.30;99.90;;;;;;5049609;28;20025;-63
2021/03/13 19:01:08;;;;;;;13.40;2.03;;;7.20;99.90;;;;;;5049293;28;20119;-63
2021/03/13 19:03:33;;;;;;;18.40;2.42;;;7.30;99.90;;;;;;5045447;28;20483;-64
2021/03/13 19:05:59;;;;;;;12.35;2.33;;;7.20;99.90;;;;;;5040596;28;20668;-63
2021/03/13 19:08:24;;;;;;;18.92;1.80;;;7.20;99.90;;;;;;5047562;28;20162;-62
2021/03/13 19:10:50;;;;;;;18.17;2.00;;;7.20;99.90;;;;;;5046847;28;20040;-64
2021/03/13 19:13:16;;;;;;;9.43;1.90;;;7.10;99.90;;;;;;5047576;28;20042;-63
2021/03/13 19:15:41;;;;;;;6.70;1.85;;;7.00;99.90;;;;;;5038665;28;20025;-63
2021/03/13 19:18:07;;;;;;;22.98;2.88;;;7.00;99.90;;;;;;5039326;28;20033;-64
2021/03/13 19:20:33;;;;;;;16.35;2.72;;;6.90;99.90;;;;;;5042691;28;20021;-62
2021/03/13 19:22:59;;;;;;;5.35;1.33;;;6.90;99.90;;;;;;5044097;28;20383;-62
2021/03/13 19:25:25;;;;;;;11.38;2.28;;;6.90;99.90;;;;;;5067264;28;20076;-64
2021/03/13 19:27:50;;;;;;;13.00;2.45;;;6.90;99.90;;;;;;5045567;28;20491;-61
2021/03/13 19:30:16;;;;;;;10.27;1.90;;;6.80;99.90;;;;;;5065707;28;20058;-63
2021/03/13 19:32:41;;;;;;;7.70;1.33;;;6.80;99.90;;;;;;5077274;28;20051;-64
2021/03/13 19:35:08;;;;;;;8.88;1.83;;;6.80;99.90;;;;;;5064981;28;20025;-63
2021/03/13 19:37:34;;;;;;;14.02;1.70;;;6.80;99.90;;;;;;5069853;28;20043;-64
2021/03/13 19:39:59;;;;;;;14.65;2.25;;;6.90;99.90;;;;;;5058884;28;20640;-64
2021/03/13 19:42:25;;;;;;;8.63;1.67;;;6.90;99.90;;;;;;5071513;28;20020;-63
2021/03/13 19:44:51;;;;;;;10.25;1.67;;;6.90;99.90;;;;;;5064650;28;20025;-63
2021/03/13 19:47:17;;;;;;;8.38;1.27;;;6.80;99.90;;;;;;5057866;28;20429;-63
2021/03/13 19:49:42;;;;;;;15.85;2.28;;;6.90;99.90;;;;;;5061746;28;20031;-62
2021/03/13 19:52:08;;;;;;;9.32;1.30;;;6.80;99.90;;;;;;5062301;28;20107;-62
2021/03/13 19:54:34;;;;;;;7.80;1.83;;;6.80;99.90;;;;;;5062644;28;20021;-62
2021/03/13 19:56:59;;;;;;;15.93;2.17;;;6.80;99.90;;;;;;5054816;28;20112;-62
2021/03/13 19:59:25;;;;;;;11.98;2.08;;;6.90;99.90;;;;;;5056425;28;20028;-62